Time;durP1;ratioP1;P1;durP2;ratioP2;P2;SDS_P1;SDS_P2;PMS_P1;PMS_P2;Temp;Humidity;BMP_temperature;BMP_pressure;BME280_temperature;BME280_humidity;BME280_pressure;Samples;Min_cycle;Max_cycle;Signal;HPM_P1;HPM_P2
2022/12/12 00:01:20;;;;;;;67.68;26.27;;;;;;;1.71;85.06;100585.91;5117757;28;20043;-64
2022/12/12 00:03:47;;;;;;;67.22;23.95;;;;;;;1.46;85.21;100582.28;5117862;28;20050;-64
2022/12/12 00:06:14;;;;;;;66.65;24.63;;;;;;;1.55;85.19;100591.31;5116838;28;20089;-64
2022/12/12 00:08:41;;;;;;;62.35;24.25;;;;;;;1.58;84.45;100593.72;5116905;28;20112;-64
2022/12/12 00:11:08;;;;;;;66.13;25.20;;;;;;;1.63;84.73;100596.03;5117322;28;20043;-64
2022/12/12 00:13:36;;;;;;;66.20;24.52;;;;;;;1.66;84.71;100595.84;5117510;28;20067;-64
2022/12/12 00:16:04;;;;;;;66.38;24.85;;;;;;;1.62;84.78;100604.81;5117154;28;20096;-64
2022/12/12 00:18:30;;;;;;;62.97;24.10;;;;;;;1.62;84.38;100599.59;5116918;28;20409;-64
2022/12/12 00:20:58;;;;;;;60.33;23.23;;;;;;;1.67;84.56;100598.38;5117411;28;20050;-64
2022/12/12 00:23:25;;;;;;;65.75;25.65;;;;;;;1.69;84.40;100598.25;5117190;28;20040;-64
2022/12/12 00:25:54;;;;;;;62.00;24.25;;;;;;;1.66;84.60;100588.84;5117093;28;20072;-64
2022/12/12 00:28:23;;;;;;;55.20;23.30;;;;;;;1.58;84.88;100592.88;5116932;28;20043;-64
2022/12/12 00:30:50;;;;;;;64.13;25.25;;;;;;;1.50;85.50;100593.38;5116955;28;20056;-64
2022/12/12 00:33:17;;;;;;;69.22;24.42;;;;;;;1.48;85.33;100590.88;5116799;28;20043;-64
2022/12/12 00:35:47;;;;;;;60.70;24.13;;;;;;;1.66;84.74;100595.84;5116770;28;20404;-64
2022/12/12 00:38:15;;;;;;;65.55;25.92;;;;;;;1.56;84.95;100602.59;5117036;28;20044;-64
2022/12/12 00:40:41;;;;;;;66.47;23.42;;;;;;;1.45;85.10;100598.91;5098376;28;20040;-64
2022/12/12 00:43:10;;;;;;;60.78;24.75;;;;;;;1.51;85.13;100601.13;5116931;28;20043;-64
2022/12/12 00:45:37;;;;;;;62.42;24.77;;;;;;;1.60;84.85;100597.09;5116669;28;20080;-64
2022/12/12 00:48:05;;;;;;;67.28;25.08;;;;;;;1.67;85.03;100592.28;5116895;28;20097;-64
2022/12/12 00:50:33;;;;;;;62.40;23.73;;;;;;;1.70;84.64;100603.38;5116501;28;20039;-64
2022/12/12 00:53:00;;;;;;;59.47;23.33;;;;;;;1.56;85.11;100603.44;5116841;28;20378;-64
2022/12/12 00:55:27;;;;;;;58.75;24.13;;;;;;;1.59;85.29;100602.41;5116525;28;20096;-64
2022/12/12 00:57:54;;;;;;;58.92;23.52;;;;;;;1.66;85.26;100599.28;5116129;28;20042;-64
2022/12/12 01:00:21;;;;;;;61.60;23.60;;;;;;;1.67;84.64;100597.50;5116656;28;20048;-62
2022/12/12 01:02:48;;;;;;;60.97;24.10;;;;;;;1.61;84.52;100606.59;5116352;28;20149;-63
2022/12/12 01:05:15;;;;;;;57.97;23.50;;;;;;;1.66;84.98;100606.31;5115809;28;20134;-63
2022/12/12 01:07:42;;;;;;;66.22;25.15;;;;;;;1.56;84.89;100602.59;5115532;28;20048;-63
2022/12/12 01:10:09;;;;;;;62.63;23.77;;;;;;;1.59;85.03;100607.66;5116143;28;20405;-63
2022/12/12 01:12:36;;;;;;;59.92;23.17;;;;;;;1.50;85.08;100609.06;5098314;28;20039;-63
2022/12/12 01:15:06;;;;;;;55.03;24.00;;;;;;;1.60;85.33;100617.16;5097975;28;20092;-64
2022/12/12 01:17:36;;;;;;;54.55;23.30;;;;;;;1.56;85.25;100618.28;5116289;28;20046;-64
2022/12/12 01:20:06;;;;;;;62.53;24.05;;;;;;;1.58;85.42;100617.25;5115757;28;20044;-63
2022/12/12 01:22:33;;;;;;;63.67;23.92;;;;;;;1.56;86.07;100624.34;5116239;28;20089;-64
2022/12/12 01:24:59;;;;;;;60.10;24.65;;;;;;;1.55;85.56;100627.94;5115452;28;20421;-64
2022/12/12 01:27:26;;;;;;;64.25;24.63;;;;;;;1.47;86.25;100635.41;5116107;28;20054;-64
2022/12/12 01:29:57;;;;;;;59.00;23.25;;;;;;;1.49;86.51;100629.16;5115722;28;20396;-64
2022/12/12 01:32:23;;;;;;;67.40;23.33;;;;;;;1.50;86.23;100636.03;5115462;28;20063;-64
2022/12/12 01:34:50;;;;;;;61.90;24.05;;;;;;;1.50;85.29;100638.66;5115655;28;20374;-64
2022/12/12 01:37:17;;;;;;;60.10;23.52;;;;;;;1.48;85.80;100637.94;5115645;28;20050;-64
2022/12/12 01:39:44;;;;;;;55.30;22.65;;;;;;;1.51;85.72;100637.75;5115731;28;20039;-64
2022/12/12 01:42:14;;;;;;;58.85;23.77;;;;;;;1.47;85.46;100638.03;5115139;28;20431;-64
2022/12/12 01:44:46;;;;;;;54.13;22.60;;;;;;;1.45;86.32;100643.34;5115940;28;20477;-64
2022/12/12 01:47:14;;;;;;;59.92;23.60;;;;;;;1.43;86.35;100645.22;5115655;28;20130;-64
2022/12/12 01:49:45;;;;;;;59.85;23.30;;;;;;;1.41;85.84;100643.66;5115688;28;20051;-64
2022/12/12 01:52:18;;;;;;;60.05;24.20;;;;;;;1.40;86.32;100640.22;5115622;28;20051;-64
2022/12/12 01:54:49;;;;;;;59.55;22.80;;;;;;;1.34;86.00;100636.19;5115297;28;20050;-64
2022/12/12 01:57:22;;;;;;;56.87;22.23;;;;;;;1.39;86.47;100635.91;5115559;28;20047;-64
2022/12/12 01:59:48;;;;;;;57.78;23.73;;;;;;;1.40;86.51;100631.50;5115504;28;20124;-64
2022/12/12 02:02:15;;;;;;;55.28;23.40;;;;;;;1.32;86.64;100640.66;5115293;28;20047;-64
2022/12/12 02:04:42;;;;;;;63.35;23.60;;;;;;;1.37;86.55;100636.94;5115156;28;20488;-64
2022/12/12 02:07:09;;;;;;;62.28;24.00;;;;;;;1.31;87.14;100635.53;5114090;28;20071;-64
2022/12/12 02:09:36;;;;;;;59.20;23.23;;;;;;;1.27;86.88;100639.28;5114881;28;20047;-64
2022/12/12 02:12:03;;;;;;;57.60;23.65;;;;;;;1.27;87.03;100634.06;5114670;28;20112;-64
2022/12/12 02:14:37;;;;;;;55.40;22.17;;;;;;;1.25;87.10;100630.72;5115214;28;20070;-64
2022/12/12 02:17:31;;;;;;;60.65;24.20;;;;;;;1.25;87.01;100636.75;5113912;28;20048;-64
2022/12/12 02:20:38;;;;;;;52.58;22.45;;;;;;;1.20;86.89;100640.59;5114814;28;20119;-64
2022/12/12 02:23:44;;;;;;;56.35;23.20;;;;;;;1.18;87.19;100638.06;5114436;28;20048;-64
2022/12/12 02:26:51;;;;;;;56.65;22.67;;;;;;;1.16;87.14;100634.72;5114527;28;20134;-64
2022/12/12 02:29:38;;;;;;;57.03;21.92;;;;;;;1.18;87.22;100637.25;5114429;28;20056;-64
2022/12/12 02:35:10;;;;;;;61.80;23.17;;;;;;;1.09;88.01;100636.03;5111175;27;20139;-63
2022/12/12 02:37:47;;;;;;;56.05;22.83;;;;;;;1.14;88.08;100641.81;5109179;28;20126;-64
2022/12/12 02:40:38;;;;;;;59.42;23.50;;;;;;;1.13;87.84;100641.00;5110929;28;20048;-64
2022/12/12 02:43:16;;;;;;;54.13;21.92;;;;;;;1.16;87.97;100634.72;5110905;28;20035;-64
2022/12/12 02:45:57;;;;;;;63.28;23.67;;;;;;;1.09;88.30;100638.66;5110902;28;20051;-63
2022/12/12 02:48:35;;;;;;;51.20;21.50;;;;;;;1.07;88.53;100637.91;5111130;28;20054;-64
2022/12/12 02:51:05;;;;;;;56.85;21.88;;;;;;;1.04;88.74;100638.13;5111049;28;20054;-63
2022/12/12 02:53:32;;;;;;;61.67;23.42;;;;;;;1.03;88.66;100633.81;5111018;28;20040;-63
2022/12/12 02:56:04;;;;;;;56.67;22.85;;;;;;;1.03;88.18;100633.81;5110567;28;20485;-63
2022/12/12 02:58:35;;;;;;;60.67;23.52;;;;;;;0.95;88.69;100637.75;5110813;28;20071;-63
2022/12/12 03:10:28;;;;;;;56.08;22.52;;;;;;;0.69;89.58;100641.09;5110683;28;20501;-63
2022/12/12 03:13:32;;;;;;;55.20;21.60;;;;;;;0.76;89.15;100642.41;5126616;28;20044;-63
2022/12/12 03:16:38;;;;;;;60.05;21.70;;;;;;;0.83;89.38;100641.09;5110910;28;20505;-63
2022/12/12 03:19:37;;;;;;;55.60;21.98;;;;;;;0.82;89.56;100649.03;5110599;28;20068;-63
2022/12/12 03:22:20;;;;;;;53.83;21.63;;;;;;;0.56;89.70;100628.81;5110841;28;20040;-63
2022/12/12 03:28:00;;;;;;;57.35;21.95;;;;;;;0.65;89.51;100634.41;5111585;27;20865;-64
2022/12/12 03:30:32;;;;;;;57.10;23.27;;;;;;;0.72;88.99;100633.94;5111118;28;20083;-64
2022/12/12 03:33:05;;;;;;;49.35;22.08;;;;;;;0.73;88.68;100632.19;5111497;28;20485;-64
2022/12/12 03:35:42;;;;;;;57.83;22.42;;;;;;;0.57;89.47;100633.09;5111062;28;20109;-64
2022/12/12 03:38:22;;;;;;;55.85;21.75;;;;;;;0.64;89.80;100635.31;5111055;28;20541;-64
2022/12/12 03:40:57;;;;;;;52.72;21.73;;;;;;;0.68;88.74;100629.84;5110661;28;20040;-64
2022/12/12 03:43:27;;;;;;;56.15;21.77;;;;;;;0.59;88.33;100635.63;5110861;28;20051;-64
2022/12/12 03:46:17;;;;;;;55.13;21.75;;;;;;;0.46;88.27;100643.34;5110813;28;20044;-64
2022/12/12 03:49:09;;;;;;;55.22;21.60;;;;;;;0.47;88.57;100645.00;5110636;28;20378;-64
2022/12/12 03:51:40;;;;;;;57.65;22.08;;;;;;;0.51;88.54;100643.91;5110751;28;20430;-64
2022/12/12 03:54:16;;;;;;;51.85;20.20;;;;;;;0.55;87.78;100641.97;5110846;28;20052;-64
2022/12/12 03:57:09;;;;;;;55.33;21.75;;;;;;;0.60;88.43;100647.75;5110325;28;20489;-64
2022/12/12 03:59:42;;;;;;;45.67;19.63;;;;;;;0.63;87.88;100651.94;5110754;28;20387;-64
2022/12/12 04:02:33;;;;;;;50.20;20.48;;;;;;;0.63;87.96;100650.16;5110488;28;20468;-64
2022/12/12 04:05:14;;;;;;;51.65;20.70;;;;;;;0.67;87.57;100661.25;5110103;28;20052;-64
2022/12/12 04:07:48;;;;;;;52.67;20.17;;;;;;;0.78;87.55;100656.22;5109383;28;20382;-64
2022/12/12 04:13:21;;;;;;;49.38;19.30;;;;;;;0.72;86.21;100656.59;5110415;28;20048;-64
2022/12/12 04:15:58;;;;;;;51.95;19.23;;;;;;;0.86;85.58;100661.81;5110163;28;20051;-64
2022/12/12 04:18:52;;;;;;;49.13;19.60;;;;;;;0.87;85.72;100667.88;5110211;28;20114;-64
2022/12/12 04:27:29;;;;;;;62.55;21.90;;;;;;;0.61;85.88;100667.69;5111084;27;20383;-63
2022/12/12 04:30:03;;;;;;;54.97;21.08;;;;;;;0.60;85.85;100665.16;5111507;28;20045;-63
2022/12/12 04:32:36;;;;;;;50.28;20.70;;;;;;;0.59;86.15;100679.16;5111362;28;20512;-63
2022/12/12 04:35:12;;;;;;;50.85;20.60;;;;;;;0.61;86.17;100678.13;5111330;28;20493;-63
2022/12/12 04:37:45;;;;;;;54.72;20.20;;;;;;;0.65;86.59;100682.22;5110925;28;20048;-63
2022/12/12 04:40:22;;;;;;;48.97;19.52;;;;;;;0.59;86.15;100687.81;5110834;28;20378;-63
2022/12/12 04:42:55;;;;;;;49.25;20.13;;;;;;;0.51;86.33;100677.84;5111057;28;20055;-64
2022/12/12 04:45:28;;;;;;;51.25;20.17;;;;;;;0.48;86.41;100685.00;5110338;28;20405;-64
2022/12/12 04:47:57;;;;;;;52.45;19.15;;;;;;;0.45;86.34;100686.03;5110855;28;20097;-64
2022/12/12 04:50:27;;;;;;;49.90;20.17;;;;;;;0.50;86.71;100681.38;5110813;28;20051;-64
2022/12/12 04:52:56;;;;;;;49.08;19.50;;;;;;;0.54;86.16;100682.03;5111197;28;20047;-64
2022/12/12 04:55:28;;;;;;;45.90;18.58;;;;;;;0.59;85.89;100681.78;5110468;28;20446;-64
2022/12/12 04:57:55;;;;;;;44.80;17.77;;;;;;;0.56;85.81;100681.03;5109651;28;20079;-64
2022/12/12 05:00:25;;;;;;;55.70;18.77;;;;;;;0.54;85.80;100679.41;5110850;28;20047;-64
2022/12/12 05:03:12;;;;;;;48.70;20.33;;;;;;;0.55;85.55;100675.88;5110717;28;20050;-64
2022/12/12 05:05:50;;;;;;;48.72;19.45;;;;;;;0.58;84.94;100683.53;5110238;28;20071;-64
2022/12/12 05:08:22;;;;;;;47.83;19.08;;;;;;;0.57;85.23;100685.31;5110380;28;20059;-64
2022/12/12 05:10:54;;;;;;;43.00;18.58;;;;;;;0.60;85.28;100680.81;5110444;28;20505;-64
2022/12/12 05:13:23;;;;;;;;;;;;;;;0.55;85.92;100691.56;5110738;28;20043;-64
2022/12/12 05:15:53;;;;;;;46.10;17.33;;;;;;;0.47;85.54;100683.31;5110415;28;19920;-64
2022/12/12 05:18:20;;;;;;;51.38;18.92;;;;;;;0.54;85.37;100684.63;5110021;28;20040;-64
2022/12/12 05:20:48;;;;;;;54.22;19.40;;;;;;;0.57;85.43;100689.69;5110120;28;20048;-64
2022/12/12 05:23:15;;;;;;;59.00;19.85;;;;;;;0.52;84.78;100687.34;5110170;28;20109;-65
2022/12/12 05:25:42;;;;;;;46.35;19.38;;;;;;;0.55;84.68;100695.00;5109409;28;20109;-64
2022/12/12 05:28:08;;;;;;;42.33;18.25;;;;;;;0.61;85.29;100703.41;5110297;28;20050;-63
2022/12/12 05:30:35;;;;;;;46.05;18.30;;;;;;;0.57;84.96;100695.75;5110052;28;20048;-64
2022/12/12 05:33:02;;;;;;;44.92;18.20;;;;;;;0.53;85.26;100693.41;5108881;28;20051;-65
2022/12/12 05:35:29;;;;;;;46.22;17.88;;;;;;;0.51;85.11;100685.69;5109724;28;20119;-64
2022/12/12 05:37:56;;;;;;;44.08;18.27;;;;;;;0.49;85.42;100684.06;5100834;28;20051;-64
2022/12/12 05:40:22;;;;;;;48.90;18.38;;;;;;;0.52;85.47;100689.94;5096238;28;20048;-64
2022/12/12 05:42:50;;;;;;;43.05;17.77;;;;;;;0.50;85.76;100690.97;5096021;28;20451;-65
2022/12/12 05:45:17;;;;;;;43.85;17.60;;;;;;;0.48;86.10;100690.22;5096227;28;20055;-64
2022/12/12 05:47:44;;;;;;;41.17;17.45;;;;;;;0.46;86.07;100700.75;5095773;28;20118;-64
2022/12/12 05:50:11;;;;;;;38.55;17.05;;;;;;;0.43;85.92;100689.66;5096406;28;20044;-64
2022/12/12 05:52:37;;;;;;;40.83;17.50;;;;;;;0.36;85.80;100700.47;5095789;28;20055;-64
2022/12/12 05:55:05;;;;;;;41.55;16.60;;;;;;;0.35;85.93;100704.00;5095736;28;20047;-63
2022/12/12 05:57:31;;;;;;;44.63;17.33;;;;;;;0.32;85.84;100698.13;5095886;28;20109;-64
2022/12/12 05:59:58;;;;;;;41.90;16.50;;;;;;;0.20;86.07;100699.69;5094311;28;20048;-63
2022/12/12 06:02:25;;;;;;;38.95;15.80;;;;;;;0.17;86.22;100707.69;5095945;28;20052;-65
2022/12/12 06:04:52;;;;;;;41.35;15.88;;;;;;;0.19;86.29;100695.38;5095520;28;20044;-63
2022/12/12 06:07:18;;;;;;;37.08;16.13;;;;;;;0.14;86.30;100700.84;5095012;28;20044;-63
2022/12/12 06:09:45;;;;;;;40.38;15.82;;;;;;;0.16;86.45;100704.22;5095504;28;20509;-63
2022/12/12 06:12:12;;;;;;;38.72;16.17;;;;;;;0.07;86.80;100707.34;5095867;28;20048;-63
2022/12/12 06:14:39;;;;;;;38.60;15.60;;;;;;;0.10;86.72;100717.59;5094278;28;20048;-63
2022/12/12 06:17:06;;;;;;;38.95;15.85;;;;;;;0.11;86.75;100708.88;5095311;28;20044;-64
2022/12/12 06:19:33;;;;;;;41.17;15.40;;;;;;;-0.02;86.87;100716.56;5077710;28;20048;-63
2022/12/12 06:22:00;;;;;;;35.95;16.02;;;;;;;-0.01;86.37;100720.00;5095365;28;20081;-64
2022/12/12 06:24:27;;;;;;;43.90;15.73;;;;;;;-0.04;86.61;100723.63;5095211;28;20122;-64
2022/12/12 06:26:53;;;;;;;40.83;15.45;;;;;;;-0.05;86.90;100729.75;5094534;28;20565;-64
2022/12/12 06:29:20;;;;;;;37.78;14.90;;;;;;;-0.13;87.74;100731.09;5095126;28;20044;-64
2022/12/12 06:31:47;;;;;;;39.42;16.13;;;;;;;-0.16;87.73;100737.34;5095466;28;20185;-65
2022/12/12 06:34:14;;;;;;;39.17;15.55;;;;;;;-0.12;88.23;100736.25;5093685;28;20055;-65
2022/12/12 06:36:41;;;;;;;40.38;15.43;;;;;;;-0.18;88.45;100739.19;5094876;28;20432;-64
2022/12/12 06:39:08;;;;;;;36.65;14.15;;;;;;;-0.11;87.92;100742.28;5094842;28;20121;-64
2022/12/12 06:41:35;;;;;;;39.05;14.68;;;;;;;-0.10;88.01;100737.00;5094577;28;20098;-63
2022/12/12 06:44:03;;;;;;;35.33;13.43;;;;;;;-0.06;87.84;100740.28;5094391;28;20562;-63
2022/12/12 06:46:30;;;;;;;38.65;15.05;;;;;;;-0.01;87.80;100744.28;5093825;28;20120;-63
2022/12/12 06:48:57;;;;;;;36.03;14.25;;;;;;;0.05;87.79;100744.88;5093361;28;20055;-63
2022/12/12 06:51:28;;;;;;;41.95;14.77;;;;;;;0.07;87.07;100741.25;5092735;28;20553;-63
2022/12/12 06:53:55;;;;;;;37.50;13.45;;;;;;;0.11;86.73;100747.13;5094497;28;20048;-63
2022/12/12 06:56:25;;;;;;;33.97;13.70;;;;;;;0.14;86.59;100747.81;5094046;28;20047;-64
2022/12/12 06:58:52;;;;;;;36.45;14.63;;;;;;;0.17;86.36;100755.47;5094644;28;20448;-64
2022/12/12 07:01:21;;;;;;;56.63;20.35;;;;;;;0.18;86.80;100748.47;5094374;28;20489;-64
2022/12/12 07:03:49;;;;;;;38.95;15.50;;;;;;;0.23;85.85;100756.88;5094884;28;20128;-64
2022/12/12 07:06:18;;;;;;;34.25;13.95;;;;;;;0.26;86.22;100758.50;5092541;28;20157;-64
2022/12/12 07:08:45;;;;;;;32.83;12.80;;;;;;;0.23;86.08;100756.88;5072964;28;20405;-64
2022/12/12 07:11:17;;;;;;;30.77;13.10;;;;;;;0.25;85.26;100757.63;5088974;28;20116;-64
2022/12/12 07:13:45;;;;;;;35.38;12.75;;;;;;;0.14;85.36;100763.47;5094197;28;20044;-64
2022/12/12 07:16:12;;;;;;;29.00;11.55;;;;;;;0.16;84.72;100764.25;5094150;28;20044;-64
2022/12/12 07:18:38;;;;;;;29.33;12.65;;;;;;;0.04;84.00;100766.66;5094206;28;20497;-64
2022/12/12 07:21:11;;;;;;;29.30;12.98;;;;;;;0.07;84.18;100769.13;5092846;28;20052;-64
2022/12/12 07:23:38;;;;;;;33.63;12.40;;;;;;;0.11;84.48;100771.47;5094087;28;20052;-64
2022/12/12 07:26:07;;;;;;;35.67;13.95;;;;;;;0.05;83.23;100766.59;5093829;28;20101;-64
2022/12/12 07:28:37;;;;;;;31.90;13.23;;;;;;;0.15;83.62;100766.94;5094030;28;20044;-64
2022/12/12 07:31:06;;;;;;;32.55;12.40;;;;;;;0.22;83.39;100767.41;5094101;28;20044;-64
2022/12/12 07:33:33;;;;;;;33.33;12.57;;;;;;;0.25;83.18;100770.69;5094010;28;20047;-64
2022/12/12 07:36:07;;;;;;;32.90;11.82;;;;;;;0.27;82.80;100766.22;5091600;28;20610;-64
2022/12/12 07:38:35;;;;;;;31.02;11.55;;;;;;;0.23;82.32;100772.53;5083334;28;20131;-65
2022/12/12 07:41:06;;;;;;;29.92;11.88;;;;;;;0.13;82.25;100761.78;5092607;28;20093;-64
2022/12/12 07:43:35;;;;;;;30.47;11.70;;;;;;;0.03;81.96;100767.63;5095765;28;20089;-65
2022/12/12 07:46:07;;;;;;;32.35;12.07;;;;;;;0.04;82.23;100767.53;5092242;28;20044;-64
2022/12/12 07:48:35;;;;;;;30.65;12.25;;;;;;;0.04;82.49;100775.34;5085495;28;20043;-64
2022/12/12 07:51:03;;;;;;;26.38;11.57;;;;;;;-0.01;82.38;100774.75;5092200;28;20371;-65
2022/12/12 07:53:30;;;;;;;27.83;11.68;;;;;;;-0.06;82.82;100776.78;5073419;28;20083;-65
2022/12/12 07:55:56;;;;;;;37.95;11.43;;;;;;;-0.12;82.99;100784.97;5089240;28;20060;-64
2022/12/12 07:58:23;;;;;;;27.17;11.32;;;;;;;-0.01;82.25;100786.03;5092497;28;20048;-64
2022/12/12 08:00:50;;;;;;;70.80;25.13;;;;;;;0.07;82.75;100787.38;5092363;28;20040;-64
2022/12/12 08:03:16;;;;;;;64.10;24.40;;;;;;;0.11;82.29;100788.88;5092801;28;20051;-64
2022/12/12 08:05:43;;;;;;;30.75;12.00;;;;;;;0.09;82.63;100791.59;5066738;28;20044;-65
2022/12/12 08:08:10;;;;;;;27.77;12.05;;;;;;;0.17;81.64;100783.34;5074723;28;20114;-65
2022/12/12 08:10:39;;;;;;;29.95;11.35;;;;;;;0.09;82.53;100785.50;5098566;28;20043;-65
2022/12/12 08:13:05;;;;;;;27.55;11.82;;;;;;;0.03;82.40;100785.88;5081753;28;20040;-65
2022/12/12 08:15:33;;;;;;;28.75;11.55;;;;;;;0.05;82.24;100789.22;5090281;28;20040;-65
2022/12/12 08:18:00;;;;;;;30.77;11.85;;;;;;;-0.04;82.13;100794.03;5091286;28;20035;-65
2022/12/12 08:20:26;;;;;;;30.83;11.90;;;;;;;0.02;82.10;100794.59;5085282;28;20043;-65
2022/12/12 08:22:53;;;;;;;32.83;11.63;;;;;;;-0.10;81.41;100791.75;5077392;28;20073;-65
2022/12/12 08:25:20;;;;;;;29.73;10.68;;;;;;;-0.01;81.95;100793.84;5087431;28;20093;-65
2022/12/12 08:27:47;;;;;;;28.85;11.25;;;;;;;-0.03;82.23;100793.09;5088483;28;20049;-65
2022/12/12 08:30:15;;;;;;;28.45;10.57;;;;;;;0.10;80.77;100802.88;5081128;28;20469;-65
2022/12/12 08:32:42;;;;;;;25.33;10.80;;;;;;;-0.09;81.46;100803.88;5083799;28;20044;-63
2022/12/12 08:35:08;;;;;;;26.77;11.10;;;;;;;-0.11;81.60;100802.28;5088540;28;21288;-63
2022/12/12 08:37:35;;;;;;;27.08;10.85;;;;;;;0.02;81.90;100810.25;5079682;28;20124;-64
2022/12/12 08:40:03;;;;;;;32.35;10.75;;;;;;;-0.04;81.39;100806.22;5078590;28;20048;-65
2022/12/12 08:42:29;;;;;;;22.40;10.00;;;;;;;0.01;81.92;100800.78;5089781;28;20036;-65
2022/12/12 08:44:56;;;;;;;28.60;10.20;;;;;;;-0.01;81.70;100808.69;5090594;28;20040;-63
2022/12/12 08:47:23;;;;;;;24.67;9.65;;;;;;;-0.04;80.73;100812.31;5060673;28;20051;-64
2022/12/12 08:49:49;;;;;;;26.67;10.18;;;;;;;0.08;80.60;100809.94;5090033;28;20473;-66
2022/12/12 08:52:16;;;;;;;25.38;10.48;;;;;;;-0.26;81.12;100809.16;5082912;28;20712;-64
2022/12/12 08:54:43;;;;;;;23.60;9.77;;;;;;;-0.17;81.50;100813.88;5076757;28;20102;-64
2022/12/12 08:57:10;;;;;;;27.33;11.00;;;;;;;-0.15;80.99;100817.25;5100068;28;20039;-64
2022/12/12 08:59:36;;;;;;;32.72;10.02;;;;;;;-0.10;81.56;100817.00;5081909;28;20055;-64
2022/12/12 09:02:03;;;;;;;31.15;11.30;;;;;;;0.02;80.91;100823.31;5076223;28;20048;-64
2022/12/12 09:04:30;;;;;;;28.48;10.90;;;;;;;0.03;80.66;100822.38;5087223;28;20374;-65
2022/12/12 09:06:56;;;;;;;25.25;9.80;;;;;;;0.01;79.96;100825.06;5086744;28;20040;-64
2022/12/12 09:09:23;;;;;;;24.95;10.07;;;;;;;0.05;79.51;100823.13;5077253;28;20059;-64
2022/12/12 09:11:50;;;;;;;27.95;11.32;;;;;;;0.08;79.56;100820.38;5086564;28;20044;-64
2022/12/12 09:14:17;;;;;;;28.95;11.25;;;;;;;0.09;79.26;100822.91;5095080;28;20051;-64
2022/12/12 09:16:44;;;;;;;25.98;9.95;;;;;;;-0.14;80.62;100821.53;5096021;28;20101;-63
2022/12/12 09:19:11;;;;;;;27.23;10.40;;;;;;;-0.09;80.79;100827.34;5078730;28;20126;-64
2022/12/12 09:21:38;;;;;;;26.20;9.73;;;;;;;-0.06;79.69;100827.16;5095868;28;20397;-64
2022/12/12 09:24:05;;;;;;;22.30;10.07;;;;;;;-0.13;79.88;100831.03;5072873;28;20098;-64
2022/12/12 09:26:31;;;;;;;27.52;10.52;;;;;;;-0.34;80.44;100840.03;5106060;28;20191;-64
2022/12/12 09:28:58;;;;;;;24.23;10.10;;;;;;;-0.17;80.25;100836.50;5073067;28;20047;-64
2022/12/12 09:31:25;;;;;;;26.50;10.00;;;;;;;-0.13;80.31;100833.63;5107823;28;20040;-64
2022/12/12 09:33:52;;;;;;;34.13;10.38;;;;;;;0.09;79.90;100835.94;5102146;28;20055;-64
2022/12/12 09:36:19;;;;;;;26.77;10.15;;;;;;;0.15;79.02;100835.59;5094607;28;20048;-64
2022/12/12 09:38:47;;;;;;;25.65;10.48;;;;;;;0.08;78.94;100833.41;5071307;28;20428;-64
2022/12/12 09:41:19;;;;;;;29.10;10.05;;;;;;;-0.07;78.87;100833.31;5095154;28;20082;-64
2022/12/12 09:46:46;;;;;;;26.80;9.73;;;;;;;0.12;78.95;100829.72;5084638;27;20137;-63
2022/12/12 09:49:34;;;;;;;27.02;9.93;;;;;;;0.25;77.89;100832.47;5084666;28;20044;-69
2022/12/12 09:52:04;;;;;;;21.13;9.20;;;;;;;0.17;78.95;100831.13;5078853;28;20436;-63
2022/12/12 09:54:31;;;;;;;25.65;10.10;;;;;;;0.22;78.85;100833.50;5063514;28;20043;-63
2022/12/12 09:57:26;;;;;;;22.90;10.18;;;;;;;0.29;78.14;100836.59;5062097;28;20532;-63
2022/12/12 10:00:02;;;;;;;29.90;10.40;;;;;;;0.42;77.07;100839.34;5088814;28;20048;-64
2022/12/12 10:03:22;;;;;;;23.40;10.27;;;;;;;0.42;77.12;100839.34;5057032;28;20369;-63
2022/12/12 10:08:58;;;;;;;26.88;10.10;;;;;;;0.35;78.33;100842.31;5111179;27;20615;-63
2022/12/12 10:12:02;;;;;;;23.73;10.00;;;;;;;0.41;78.33;100840.28;5092769;28;20098;-63
2022/12/12 10:14:30;;;;;;;21.45;9.73;;;;;;;0.53;77.44;100832.59;5095077;28;20044;-63
2022/12/12 10:16:58;;;;;;;31.58;10.00;;;;;;;0.57;77.01;100834.09;5105518;28;20040;-63
2022/12/12 10:19:29;;;;;;;26.80;9.75;;;;;;;0.65;77.64;100838.06;5096242;28;20071;-63
2022/12/12 10:22:02;;;;;;;26.55;9.27;;;;;;;0.68;77.36;100827.44;5097283;28;20454;-63
2022/12/12 10:24:38;;;;;;;27.70;10.20;;;;;;;0.65;76.55;100825.84;5079115;28;20054;-64
2022/12/12 10:27:10;;;;;;;30.10;10.65;;;;;;;0.63;77.91;100826.84;5108033;28;20397;-64
2022/12/12 10:29:39;;;;;;;;;;;;;;;0.62;77.22;100836.47;5110154;28;20097;-64
2022/12/12 10:32:46;;;;;;;28.63;9.95;;;;;;;0.84;76.87;100827.41;5089501;28;19920;-63
2022/12/12 10:35:27;;;;;;;28.20;9.75;;;;;;;0.97;76.31;100838.81;5101298;28;20024;-64
2022/12/12 10:38:14;;;;;;;30.50;10.52;;;;;;;1.06;74.71;100829.59;5089551;28;20086;-70
2022/12/12 10:41:10;;;;;;;32.88;10.05;;;;;;;1.11;74.89;100822.31;5079232;28;20056;-64
2022/12/12 10:43:48;;;;;;;26.52;9.88;;;;;;;1.14;75.02;100822.13;5098906;28;20046;-64
2022/12/12 10:46:27;;;;;;;28.35;10.45;;;;;;;1.18;73.75;100815.78;5090342;28;20821;-64
2022/12/12 10:48:54;;;;;;;25.02;10.00;;;;;;;1.46;73.85;100819.38;5090052;28;20408;-64
2022/12/12 10:51:23;;;;;;;25.50;10.02;;;;;;;2.41;69.80;100818.59;5092957;28;20043;-64
2022/12/12 10:53:50;;;;;;;25.95;10.40;;;;;;;4.42;63.45;100818.78;5090518;28;20047;-64
2022/12/12 10:56:22;;;;;;;29.42;11.55;;;;;;;6.87;55.07;100818.16;5090403;28;20052;-64
2022/12/12 10:58:54;;;;;;;29.00;11.23;;;;;;;8.82;49.64;100824.09;5102391;28;20040;-64
2022/12/12 11:01:26;;;;;;;26.23;10.43;;;;;;;10.12;45.08;100818.06;5073435;28;20055;-64
2022/12/12 11:04:04;;;;;;;24.42;11.23;;;;;;;11.40;42.21;100824.78;5102058;28;20121;-64
2022/12/12 11:06:38;;;;;;;26.00;11.32;;;;;;;11.63;39.86;100822.44;5101439;28;20057;-64
2022/12/12 11:09:21;;;;;;;30.33;12.35;;;;;;;12.28;39.12;100818.38;5072799;28;20037;-64
2022/12/12 11:11:59;;;;;;;34.85;12.98;;;;;;;12.88;37.36;100817.25;5077504;28;20045;-64
2022/12/12 11:14:32;;;;;;;38.28;14.30;;;;;;;12.62;36.31;100817.41;5078197;28;20044;-64
2022/12/12 11:16:59;;;;;;;39.50;16.38;;;;;;;12.83;36.35;100809.75;5076207;28;20037;-64
2022/12/12 11:19:34;;;;;;;43.53;16.25;;;;;;;13.03;35.96;100815.56;5061190;28;20063;-64
2022/12/12 11:22:03;;;;;;;41.55;16.50;;;;;;;12.51;36.49;100815.88;5061388;28;20055;-64
2022/12/12 11:24:31;;;;;;;40.35;16.30;;;;;;;11.50;37.76;100812.25;5059015;28;20853;-64
2022/12/12 11:27:03;;;;;;;52.38;16.75;;;;;;;11.37;38.29;100813.66;5055742;28;20473;-64
2022/12/12 11:29:52;;;;;;;37.30;16.23;;;;;;;10.51;39.88;100813.38;5052209;28;20114;-64
2022/12/12 11:32:24;;;;;;;36.92;16.17;;;;;;;9.70;41.77;100810.63;5065038;28;20041;-64
2022/12/12 11:34:55;;;;;;;44.17;17.05;;;;;;;9.56;42.76;100807.47;5065077;28;20049;-64
2022/12/12 11:37:34;;;;;;;40.30;16.90;;;;;;;9.35;43.30;100804.19;5073932;28;20051;-64
2022/12/12 11:40:01;;;;;;;38.88;17.05;;;;;;;9.09;42.90;100802.19;5059477;28;20070;-64
2022/12/12 11:42:30;;;;;;;42.45;17.13;;;;;;;8.35;44.92;100795.69;5063069;28;20052;-64
2022/12/12 11:45:18;;;;;;;40.55;16.63;;;;;;;8.25;45.07;100795.66;5065309;28;20052;-64
2022/12/12 11:47:47;;;;;;;39.05;15.65;;;;;;;8.03;45.02;100783.53;5039831;28;20045;-64
2022/12/12 11:50:21;;;;;;;44.10;16.55;;;;;;;8.40;45.09;100787.31;5057421;28;20087;-64
2022/12/12 11:52:51;;;;;;;42.17;15.13;;;;;;;8.26;45.65;100789.41;5072412;28;20128;-63
2022/12/12 11:55:47;;;;;;;34.85;14.70;;;;;;;6.91;47.09;100783.50;5045395;28;20029;-63
2022/12/12 11:58:44;;;;;;;42.50;14.70;;;;;;;7.01;48.51;100786.19;5064572;28;20131;-63
2022/12/12 12:01:22;;;;;;;39.55;14.93;;;;;;;6.19;49.53;100783.38;5054210;28;20090;-63
2022/12/12 12:04:15;;;;;;;46.25;16.05;;;;;;;5.52;52.46;100770.16;5061749;28;20047;-63
2022/12/12 12:07:00;;;;;;;42.70;15.70;;;;;;;5.22;54.20;100781.28;5052830;28;20048;-62
2022/12/12 12:09:42;;;;;;;37.70;14.60;;;;;;;5.21;55.31;100774.34;5065382;28;20124;-63